createdAt,value
2017-07-04T00:01:57.531Z,21.00
2017-07-04T00:04:25.599Z,21.00
2017-07-04T00:06:53.660Z,21.00
2017-07-04T00:09:21.746Z,21.00
2017-07-04T00:11:49.802Z,20.90
2017-07-04T00:14:17.903Z,21.00
2017-07-04T00:16:45.979Z,21.00
2017-07-04T00:19:14.806Z,20.80
2017-07-04T00:21:42.891Z,20.70
2017-07-04T00:24:10.966Z,20.80
2017-07-04T00:26:39.165Z,20.70
2017-07-04T00:29:07.214Z,20.80
2017-07-04T00:31:35.304Z,20.90
2017-07-04T00:34:03.351Z,20.80
2017-07-04T00:36:31.420Z,20.70
2017-07-04T00:38:59.571Z,20.60
2017-07-04T00:41:28.386Z,20.60
2017-07-04T00:43:56.443Z,20.60
2017-07-04T00:46:24.499Z,20.70
2017-07-04T00:48:52.594Z,20.70
2017-07-04T00:51:20.685Z,20.60
2017-07-04T00:53:48.738Z,20.50
2017-07-04T00:56:16.819Z,20.60
2017-07-04T00:58:44.903Z,20.60
2017-07-04T01:01:12.985Z,20.60
2017-07-04T01:03:41.035Z,20.50
2017-07-04T01:06:09.106Z,20.50
2017-07-04T01:08:37.163Z,20.50
2017-07-04T01:11:05.239Z,20.50
2017-07-04T01:13:33.287Z,20.60
2017-07-04T01:16:01.415Z,20.50
2017-07-04T01:18:30.254Z,20.30
2017-07-04T01:20:58.482Z,20.20
2017-07-04T01:23:27.311Z,20.20
2017-07-04T01:25:55.354Z,20.20
2017-07-04T01:28:24.193Z,20.40
2017-07-04T01:30:52.239Z,20.30
2017-07-04T01:33:21.202Z,20.40
2017-07-04T01:35:50.023Z,20.40
2017-07-04T01:38:18.086Z,20.40
2017-07-04T01:40:46.159Z,20.40
2017-07-04T01:43:14.210Z,20.40
2017-07-04T01:45:43.066Z,20.50
2017-07-04T01:48:11.124Z,20.40
2017-07-04T01:50:39.200Z,20.50
2017-07-04T01:53:07.274Z,20.40
2017-07-04T01:55:35.345Z,20.40
2017-07-04T01:58:03.391Z,20.40
2017-07-04T02:00:31.459Z,20.40
2017-07-04T02:02:59.524Z,20.40
2017-07-04T02:05:27.606Z,20.40
2017-07-04T02:07:55.691Z,20.40
2017-07-04T02:10:23.745Z,20.30
2017-07-04T02:12:51.814Z,20.30
2017-07-04T02:15:19.878Z,20.30
2017-07-04T02:17:47.972Z,20.40
2017-07-04T02:20:16.038Z,20.40
2017-07-04T02:22:44.122Z,20.30
2017-07-04T02:25:12.191Z,20.20
2017-07-04T02:27:41.034Z,20.40
2017-07-04T02:30:09.107Z,20.30
2017-07-04T02:32:37.182Z,20.40
2017-07-04T02:35:05.247Z,20.40
2017-07-04T02:37:33.307Z,20.50
2017-07-04T02:40:01.382Z,20.50
2017-07-04T02:42:29.443Z,20.50
2017-07-04T02:44:57.532Z,20.50
2017-07-04T02:47:25.591Z,20.50
2017-07-04T02:49:53.639Z,20.50
2017-07-04T02:52:21.709Z,20.50
2017-07-04T02:54:50.532Z,20.60
2017-07-04T02:57:18.611Z,20.50
2017-07-04T02:59:46.662Z,20.60
2017-07-04T03:02:14.710Z,20.60
2017-07-04T03:04:42.807Z,20.60
2017-07-04T03:07:10.856Z,20.70
2017-07-04T03:09:38.906Z,20.70
2017-07-04T03:12:07.732Z,20.70
2017-07-04T03:14:35.783Z,20.60
2017-07-04T03:17:03.875Z,20.70
2017-07-04T03:19:31.954Z,20.60
2017-07-04T03:22:00.015Z,20.60
2017-07-04T03:24:28.096Z,20.50
2017-07-04T03:26:56.179Z,20.40
2017-07-04T03:29:24.996Z,20.30
2017-07-04T03:31:53.059Z,20.20
2017-07-04T03:34:21.907Z,20.20
2017-07-04T03:36:49.958Z,20.20
2017-07-04T03:39:18.043Z,20.30
2017-07-04T03:41:46.103Z,20.40
2017-07-04T03:44:14.159Z,20.30
2017-07-04T03:46:43.186Z,20.30
2017-07-04T03:49:11.280Z,20.30
2017-07-04T03:51:40.129Z,20.40
2017-07-04T03:54:08.183Z,20.30
2017-07-04T03:56:36.262Z,20.30
2017-07-04T03:59:04.326Z,20.10
2017-07-04T04:01:32.395Z,20.20
2017-07-04T04:04:00.526Z,20.20
2017-07-04T04:06:29.364Z,20.20
2017-07-04T04:08:57.438Z,20.20
2017-07-04T04:11:25.506Z,20.10
2017-07-04T04:13:53.576Z,20.00
2017-07-04T04:16:21.758Z,20.00
2017-07-04T04:18:49.843Z,19.90
2017-07-04T04:21:17.946Z,19.60
2017-07-04T04:23:46.027Z,19.30
2017-07-04T04:26:14.098Z,19.10
2017-07-04T04:28:42.165Z,19.10
2017-07-04T04:31:10.339Z,19.10
2017-07-04T04:33:38.411Z,19.20
2017-07-04T04:36:06.480Z,19.30
2017-07-04T04:38:34.567Z,19.40
2017-07-04T04:41:02.622Z,19.50
2017-07-04T04:43:30.711Z,19.40
2017-07-04T04:45:59.556Z,19.60
2017-07-04T04:48:27.619Z,19.60
2017-07-04T04:50:55.703Z,19.80
2017-07-04T04:53:23.780Z,20.00
2017-07-04T04:55:51.870Z,20.10
2017-07-04T04:58:19.939Z,20.20
2017-07-04T05:00:47.990Z,20.30
2017-07-04T05:03:16.063Z,20.40
2017-07-04T05:05:44.132Z,20.50
2017-07-04T05:08:12.225Z,20.40
2017-07-04T05:10:40.298Z,20.30
2017-07-04T05:13:08.374Z,20.10
2017-07-04T05:15:36.487Z,20.00
2017-07-04T05:18:04.567Z,19.90
2017-07-04T05:20:32.641Z,19.90
2017-07-04T05:23:00.715Z,19.80
2017-07-04T05:25:28.765Z,19.80
2017-07-04T05:27:56.847Z,19.40
2017-07-04T05:30:24.913Z,19.10
2017-07-04T05:32:52.979Z,19.00
2017-07-04T05:35:21.058Z,18.80
2017-07-04T05:37:49.128Z,18.70
2017-07-04T05:40:17.226Z,18.60
2017-07-04T05:42:46.052Z,18.60
2017-07-04T05:45:14.114Z,18.60
2017-07-04T05:47:42.196Z,18.70
2017-07-04T05:50:10.277Z,18.70
2017-07-04T05:52:38.367Z,18.80
2017-07-04T05:57:40.927Z,19.10
2017-07-04T06:00:09.019Z,19.30
2017-07-04T06:02:37.102Z,19.40
2017-07-04T06:05:05.175Z,19.50
2017-07-04T06:07:33.254Z,19.60
2017-07-04T06:10:01.322Z,19.60
2017-07-04T06:12:29.403Z,19.70
2017-07-04T06:14:57.505Z,19.70
2017-07-04T06:17:25.597Z,19.70
2017-07-04T06:19:53.670Z,19.80
2017-07-04T06:22:21.755Z,19.90
2017-07-04T06:24:49.840Z,19.90
2017-07-04T06:27:17.899Z,19.80
2017-07-04T06:29:45.995Z,19.90
2017-07-04T06:32:14.070Z,20.00
2017-07-04T06:34:42.218Z,19.80
2017-07-04T06:37:11.027Z,19.80
2017-07-04T06:39:39.099Z,19.80
2017-07-04T06:42:07.175Z,20.00
2017-07-04T06:44:35.251Z,20.00
2017-07-04T06:47:04.237Z,19.90
2017-07-04T06:49:32.338Z,19.70
2017-07-04T06:52:00.394Z,19.70
2017-07-04T06:54:28.447Z,19.80
2017-07-04T06:56:56.536Z,20.00
2017-07-04T06:59:24.590Z,20.10
2017-07-04T07:01:52.667Z,20.40
2017-07-04T07:04:20.739Z,20.40
2017-07-04T07:06:48.959Z,20.60
2017-07-04T07:09:17.039Z,20.60
2017-07-04T07:11:45.111Z,20.60
2017-07-04T07:14:13.168Z,20.50
2017-07-04T07:16:42.023Z,20.70
2017-07-04T07:19:10.080Z,20.70
2017-07-04T07:21:38.171Z,20.90
2017-07-04T07:26:41.531Z,20.90
2017-07-04T07:29:09.615Z,20.90
2017-07-04T07:31:37.687Z,20.80
2017-07-04T07:34:05.796Z,20.80
2017-07-04T07:36:34.650Z,20.70
2017-07-04T07:39:02.729Z,20.70
2017-07-04T07:41:30.793Z,20.70
2017-07-04T07:43:58.873Z,20.60
2017-07-04T07:46:26.930Z,20.50
2017-07-04T07:48:55.004Z,20.60
2017-07-04T07:51:23.090Z,20.70
2017-07-04T07:53:51.151Z,20.90
2017-07-04T07:56:19.240Z,21.30
2017-07-04T07:58:47.310Z,21.60
2017-07-04T08:01:15.392Z,21.50
2017-07-04T08:03:43.504Z,21.00
2017-07-04T08:06:11.572Z,20.70
2017-07-04T08:08:39.646Z,20.60
2017-07-04T08:11:07.733Z,20.60
2017-07-04T08:13:35.795Z,20.80
2017-07-04T08:16:03.867Z,21.10
2017-07-04T08:18:31.955Z,21.20
2017-07-04T08:21:00.028Z,21.20
2017-07-04T08:23:30.552Z,21.40
2017-07-04T08:25:59.611Z,21.60
2017-07-04T08:28:27.684Z,21.90
2017-07-04T08:30:55.778Z,22.10
2017-07-04T08:33:23.863Z,22.20
2017-07-04T08:35:51.948Z,22.50
2017-07-04T08:38:20.029Z,22.80
2017-07-04T08:40:48.094Z,22.70
2017-07-04T08:43:16.168Z,22.70
2017-07-04T08:45:45.012Z,23.00
2017-07-04T08:48:13.071Z,22.90
2017-07-04T08:50:41.178Z,22.70
2017-07-04T08:53:09.266Z,22.60
2017-07-04T08:55:37.336Z,22.90
2017-07-04T08:58:05.409Z,23.10
2017-07-04T09:00:33.482Z,23.10
2017-07-04T09:03:01.564Z,23.40
2017-07-04T09:05:30.406Z,23.30
2017-07-04T09:07:58.512Z,23.20
2017-07-04T09:10:26.587Z,23.30
2017-07-04T09:12:54.652Z,23.60
2017-07-04T09:15:23.324Z,24.00
2017-07-04T09:17:51.408Z,24.30
2017-07-04T09:20:19.474Z,24.40
2017-07-04T09:22:47.571Z,24.50
2017-07-04T09:25:15.627Z,25.20
2017-07-04T09:27:44.211Z,26.90
2017-07-04T09:30:12.286Z,28.70
2017-07-04T09:32:40.355Z,29.10
2017-07-04T09:35:08.423Z,28.90
2017-07-04T09:37:36.504Z,30.00
2017-07-04T09:40:04.567Z,30.10
2017-07-04T09:42:32.639Z,30.80
2017-07-04T09:45:00.735Z,30.30
2017-07-04T09:47:29.564Z,32.10
2017-07-04T09:49:57.628Z,32.00
2017-07-04T09:52:25.707Z,32.20
2017-07-04T09:54:53.784Z,32.30
2017-07-04T09:57:21.859Z,33.00
2017-07-04T09:59:49.931Z,33.20
2017-07-04T10:02:18.003Z,33.30
2017-07-04T10:04:46.074Z,33.90
2017-07-04T10:07:14.140Z,34.10
2017-07-04T10:09:42.221Z,33.00
2017-07-04T10:12:10.296Z,31.20
2017-07-04T10:14:38.387Z,29.60
2017-07-04T10:17:06.467Z,28.00
2017-07-04T10:19:34.522Z,27.10
2017-07-04T10:22:02.611Z,26.40
2017-07-04T10:24:32.437Z,25.60
2017-07-04T10:27:01.296Z,25.30
2017-07-04T10:29:29.360Z,25.20
2017-07-04T10:31:57.412Z,25.20
2017-07-04T10:34:25.497Z,24.90
2017-07-04T10:36:53.552Z,24.70
2017-07-04T10:39:21.635Z,24.50
2017-07-04T10:41:49.706Z,24.30
2017-07-04T10:44:17.769Z,24.20
2017-07-04T10:46:45.850Z,24.10
2017-07-04T10:49:13.939Z,24.00
2017-07-04T10:51:41.991Z,24.00
2017-07-04T10:54:10.076Z,24.00
2017-07-04T10:56:38.145Z,24.00
2017-07-04T10:59:06.227Z,23.80
2017-07-04T11:01:34.280Z,23.70
2017-07-04T11:04:02.349Z,23.60
2017-07-04T11:06:30.418Z,23.40
2017-07-04T11:08:58.511Z,23.40
2017-07-04T11:11:26.634Z,23.30
2017-07-04T11:13:54.726Z,23.20
2017-07-04T11:16:22.795Z,23.20
2017-07-04T11:18:50.919Z,23.20
2017-07-04T11:21:19.770Z,23.10
2017-07-04T11:23:47.887Z,23.00
2017-07-04T11:26:15.947Z,23.10
2017-07-04T11:28:44.061Z,23.10
2017-07-04T11:31:12.126Z,23.10
2017-07-04T11:33:40.231Z,23.00
2017-07-04T11:36:08.306Z,23.00
2017-07-04T11:38:36.417Z,23.00
2017-07-04T11:41:04.467Z,23.00
2017-07-04T11:43:33.330Z,23.20
2017-07-04T11:46:01.397Z,23.10
2017-07-04T11:48:29.472Z,23.50
2017-07-04T11:50:57.550Z,23.90
2017-07-04T11:53:25.612Z,24.40
2017-07-04T11:55:53.709Z,25.00
2017-07-04T11:58:22.539Z,26.30
2017-07-04T12:00:50.639Z,26.20
2017-07-04T12:03:18.735Z,26.30
2017-07-04T12:05:47.589Z,26.50
2017-07-04T12:08:15.684Z,26.50
2017-07-04T12:10:43.728Z,26.50
2017-07-04T12:13:11.823Z,26.60
2017-07-04T12:15:39.895Z,26.40
2017-07-04T12:18:07.969Z,26.00
2017-07-04T12:20:37.669Z,25.60
2017-07-04T12:23:05.826Z,25.50
2017-07-04T12:25:33.876Z,25.60
2017-07-04T12:28:01.964Z,25.40
2017-07-04T12:30:30.038Z,25.10
2017-07-04T12:32:58.124Z,24.70
2017-07-04T12:35:26.946Z,25.10
2017-07-04T12:37:55.015Z,25.00
2017-07-04T12:40:23.095Z,25.40
2017-07-04T12:42:51.206Z,25.80
2017-07-04T12:45:19.294Z,26.20
2017-07-04T12:47:48.132Z,26.40
2017-07-04T12:50:16.230Z,26.30
2017-07-04T12:52:44.309Z,26.50
2017-07-04T12:55:12.381Z,26.60
2017-07-04T12:57:40.459Z,26.60
2017-07-04T13:00:08.540Z,26.40
2017-07-04T13:02:37.394Z,25.30
2017-07-04T13:05:05.455Z,25.30
2017-07-04T13:07:33.539Z,25.10
2017-07-04T13:10:01.625Z,25.10
2017-07-04T13:12:29.704Z,25.20
2017-07-04T13:14:57.783Z,25.30
2017-07-04T13:17:27.597Z,25.60
2017-07-04T13:19:55.663Z,25.50
2017-07-04T13:22:24.525Z,25.70
2017-07-04T13:24:52.616Z,25.60
2017-07-04T13:27:20.708Z,25.40
2017-07-04T13:29:48.771Z,25.00
2017-07-04T13:32:16.863Z,24.90
2017-07-04T13:34:45.729Z,25.20
2017-07-04T13:37:13.804Z,25.10
2017-07-04T13:39:41.888Z,25.40
2017-07-04T13:42:10.739Z,25.90
2017-07-04T13:44:38.810Z,25.80
2017-07-04T13:47:06.919Z,26.30
2017-07-04T13:49:35.747Z,26.60
2017-07-04T13:52:03.830Z,26.50
2017-07-04T13:54:31.915Z,26.40
2017-07-04T13:56:59.991Z,26.50
2017-07-04T13:59:28.087Z,26.60
2017-07-04T14:01:56.132Z,26.90
2017-07-04T14:04:24.210Z,27.10
2017-07-04T14:06:52.295Z,27.00
2017-07-04T14:09:20.355Z,26.70
2017-07-04T14:11:48.549Z,26.60
2017-07-04T14:14:18.156Z,26.50
2017-07-04T14:16:46.623Z,26.50
2017-07-04T14:19:14.716Z,26.40
2017-07-04T14:21:42.793Z,26.20
2017-07-04T14:24:11.628Z,26.00
2017-07-04T14:26:39.701Z,25.90
2017-07-04T14:29:07.771Z,26.00
2017-07-04T14:31:36.631Z,26.00
2017-07-04T14:34:04.703Z,25.90
2017-07-04T14:36:32.798Z,26.10
2017-07-04T14:39:00.865Z,26.30
2017-07-04T14:41:28.944Z,26.50
2017-07-04T14:43:57.037Z,26.50
2017-07-04T14:46:25.872Z,26.70
2017-07-04T14:48:53.941Z,26.60
2017-07-04T14:51:22.053Z,26.70
2017-07-04T14:53:50.108Z,26.70
2017-07-04T14:56:18.163Z,26.80
2017-07-04T14:58:46.267Z,26.80
2017-07-04T15:01:16.431Z,26.80
2017-07-04T15:03:44.496Z,26.70
2017-07-04T15:06:12.743Z,26.60
2017-07-04T15:08:41.567Z,26.70
2017-07-04T15:11:09.652Z,26.60
2017-07-04T15:13:37.741Z,26.60
2017-07-04T15:16:05.971Z,26.50
2017-07-04T15:18:34.030Z,26.40
2017-07-04T15:21:02.230Z,26.20
2017-07-04T15:23:30.290Z,26.10
2017-07-04T15:25:58.375Z,26.10
2017-07-04T15:28:26.465Z,26.30
2017-07-04T15:30:54.526Z,26.50
2017-07-04T15:33:22.600Z,26.50
2017-07-04T15:35:50.680Z,26.30
2017-07-04T15:38:18.748Z,26.10
2017-07-04T15:40:46.892Z,26.00
2017-07-04T15:43:14.961Z,25.90
2017-07-04T15:45:43.031Z,25.70
2017-07-04T15:48:11.134Z,25.50
2017-07-04T15:50:39.195Z,25.40
2017-07-04T15:53:07.264Z,25.50
2017-07-04T15:55:35.337Z,25.60
2017-07-04T15:58:03.390Z,25.70
2017-07-04T16:00:31.483Z,25.90
2017-07-04T16:02:59.574Z,25.90
2017-07-04T16:05:27.665Z,25.80
2017-07-04T16:07:56.509Z,25.90
2017-07-04T16:10:24.571Z,25.90
2017-07-04T16:12:52.652Z,25.90
2017-07-04T16:15:20.736Z,25.80
2017-07-04T16:17:48.815Z,25.80
2017-07-04T16:20:16.893Z,25.90
2017-07-04T16:22:44.983Z,25.90
2017-07-04T16:25:13.817Z,25.90
2017-07-04T16:27:41.896Z,25.80
2017-07-04T16:30:09.988Z,25.70
2017-07-04T16:32:38.052Z,25.50
2017-07-04T16:35:06.125Z,25.50
2017-07-04T16:37:34.236Z,25.60
2017-07-04T16:40:02.324Z,25.60
2017-07-04T16:42:31.175Z,25.40
2017-07-04T16:44:59.243Z,25.40
2017-07-04T16:47:27.377Z,25.30
2017-07-04T16:49:55.698Z,25.50
2017-07-04T16:52:23.745Z,25.60
2017-07-04T16:54:52.193Z,25.90
2017-07-04T16:57:20.246Z,26.10
2017-07-04T16:59:48.317Z,26.40
2017-07-04T17:02:16.433Z,26.50
2017-07-04T17:04:44.515Z,26.50
2017-07-04T17:07:12.635Z,26.40
2017-07-04T17:09:40.700Z,26.00
2017-07-04T17:12:09.694Z,25.80
2017-07-04T17:14:37.781Z,25.60
2017-07-04T17:17:06.627Z,25.20
2017-07-04T17:19:34.727Z,25.20
2017-07-04T17:22:02.818Z,25.20
2017-07-04T17:24:31.648Z,25.00
2017-07-04T17:26:59.733Z,25.00
2017-07-04T17:29:28.590Z,25.10
2017-07-04T17:31:56.668Z,25.20
2017-07-04T17:34:25.243Z,25.30
2017-07-04T17:36:53.343Z,25.30
2017-07-04T17:39:22.199Z,25.30
2017-07-04T17:41:50.284Z,25.20
2017-07-04T17:44:18.832Z,25.20
2017-07-04T17:46:47.093Z,25.20
2017-07-04T17:49:15.227Z,25.10
2017-07-04T17:51:44.064Z,25.10
2017-07-04T17:54:12.152Z,25.10
2017-07-04T17:56:40.243Z,25.10
2017-07-04T17:59:08.377Z,25.00
2017-07-04T18:01:36.447Z,24.90
2017-07-04T18:04:04.524Z,24.70
2017-07-04T18:06:32.641Z,24.70
2017-07-04T18:09:00.721Z,24.70
2017-07-04T18:11:29.548Z,24.60
2017-07-04T18:13:57.644Z,24.60
2017-07-04T18:16:25.709Z,24.50
2017-07-04T18:18:53.849Z,24.40
2017-07-04T18:21:22.679Z,24.10
2017-07-04T18:23:50.772Z,24.10
2017-07-04T18:26:18.891Z,24.00
2017-07-04T18:28:46.960Z,24.00
2017-07-04T18:31:15.037Z,24.00
2017-07-04T18:33:43.124Z,23.90
2017-07-04T18:36:11.199Z,23.90
2017-07-04T18:38:39.270Z,23.90
2017-07-04T18:41:07.334Z,23.90
2017-07-04T18:43:35.412Z,23.90
2017-07-04T18:46:03.503Z,23.90
2017-07-04T18:48:31.564Z,23.80
2017-07-04T18:51:00.403Z,23.70
2017-07-04T18:53:28.499Z,23.70
2017-07-04T18:55:56.625Z,23.70
2017-07-04T18:58:25.445Z,23.60
2017-07-04T19:00:53.534Z,23.60
2017-07-04T19:03:21.629Z,23.60
2017-07-04T19:05:50.489Z,23.40
2017-07-04T19:08:18.596Z,23.40
2017-07-04T19:10:47.419Z,23.30
2017-07-04T19:13:15.503Z,23.30
2017-07-04T19:15:43.571Z,23.30
2017-07-04T19:18:11.663Z,23.20
2017-07-04T19:20:39.823Z,23.20
2017-07-04T19:23:07.869Z,23.10
2017-07-04T19:25:35.953Z,23.00
2017-07-04T19:28:04.019Z,22.90
2017-07-04T19:30:32.255Z,22.90
2017-07-04T19:33:00.364Z,22.90
2017-07-04T19:35:28.434Z,22.90
2017-07-04T19:37:56.557Z,22.90
2017-07-04T19:40:24.675Z,22.90
2017-07-04T19:42:52.688Z,22.90
2017-07-04T19:45:20.892Z,22.90
2017-07-04T19:47:48.965Z,22.90
2017-07-04T19:50:17.059Z,22.90
2017-07-04T19:52:45.151Z,22.90
2017-07-04T19:55:13.977Z,22.90
2017-07-04T19:57:42.068Z,22.80
2017-07-04T20:00:10.140Z,22.90
2017-07-04T20:02:38.275Z,22.90
2017-07-04T20:05:06.320Z,22.90
2017-07-04T20:07:35.155Z,22.90
2017-07-04T20:10:03.235Z,22.90
2017-07-04T20:12:31.347Z,22.90
2017-07-04T20:14:59.410Z,22.90
2017-07-04T20:17:27.475Z,22.90
2017-07-04T20:19:55.560Z,22.90
2017-07-04T20:22:23.627Z,22.90
2017-07-04T20:24:52.490Z,22.80
2017-07-04T20:27:20.560Z,22.70
2017-07-04T20:29:48.705Z,22.80
2017-07-04T20:32:16.749Z,22.70
2017-07-04T20:34:44.812Z,22.60
2017-07-04T20:37:12.880Z,22.60
2017-07-04T20:39:40.957Z,22.50
2017-07-04T20:42:09.087Z,22.40
2017-07-04T20:44:37.143Z,22.30
2017-07-04T20:47:06.001Z,22.20
2017-07-04T20:49:34.058Z,22.10
2017-07-04T20:52:02.160Z,22.10
2017-07-04T20:54:31.004Z,22.00
2017-07-04T20:56:59.072Z,22.00
2017-07-04T20:59:27.132Z,22.00
2017-07-04T21:01:55.218Z,21.90
2017-07-04T21:04:24.211Z,21.60
2017-07-04T21:06:52.296Z,21.60
2017-07-04T21:09:20.365Z,21.60
2017-07-04T21:11:48.456Z,21.60
2017-07-04T21:14:16.528Z,21.60
2017-07-04T21:16:44.600Z,21.70
2017-07-04T21:19:12.786Z,21.70
2017-07-04T21:21:41.435Z,21.60
2017-07-04T21:24:09.555Z,21.60
2017-07-04T21:26:37.621Z,21.50
2017-07-04T21:29:06.475Z,21.50
2017-07-04T21:31:34.563Z,21.50
2017-07-04T21:34:03.426Z,21.50
2017-07-04T21:36:31.495Z,21.50
2017-07-04T21:38:59.569Z,21.50
2017-07-04T21:41:27.647Z,21.40
2017-07-04T21:43:55.716Z,21.40
2017-07-04T21:46:23.793Z,21.40
2017-07-04T21:48:52.667Z,21.30
2017-07-04T21:51:20.787Z,21.30
2017-07-04T21:53:49.607Z,21.40
2017-07-04T21:56:17.777Z,21.40
2017-07-04T21:58:45.849Z,21.40
2017-07-04T22:01:14.852Z,21.40
2017-07-04T22:03:42.917Z,21.40
2017-07-04T22:06:10.992Z,21.30
2017-07-04T22:08:39.079Z,21.30
2017-07-04T22:11:07.156Z,21.20
2017-07-04T22:13:35.228Z,21.20
2017-07-04T22:16:04.220Z,21.20
2017-07-04T22:18:32.278Z,21.20
2017-07-04T22:21:00.357Z,21.10
2017-07-04T22:23:28.439Z,21.10
2017-07-04T22:25:57.284Z,21.10
2017-07-04T22:28:25.381Z,21.10
2017-07-04T22:30:53.461Z,21.00
2017-07-04T22:33:22.067Z,21.00
2017-07-04T22:35:51.887Z,20.90
2017-07-04T22:38:20.733Z,20.80
2017-07-04T22:40:48.831Z,20.70
2017-07-04T22:43:16.900Z,20.70
2017-07-04T22:45:44.962Z,20.70
2017-07-04T22:48:13.056Z,20.60
2017-07-04T22:50:41.880Z,20.60
2017-07-04T22:53:09.959Z,20.60
2017-07-04T22:55:38.054Z,20.60
2017-07-04T22:58:06.152Z,20.70
2017-07-04T23:00:35.016Z,20.70
2017-07-04T23:03:03.087Z,20.60
2017-07-04T23:05:31.176Z,20.70
2017-07-04T23:07:59.239Z,20.70
2017-07-04T23:10:27.879Z,20.60
2017-07-04T23:12:55.959Z,20.60
2017-07-04T23:15:24.043Z,20.50
2017-07-04T23:17:52.116Z,20.40
2017-07-04T23:20:20.191Z,20.30
2017-07-04T23:22:48.281Z,20.30
2017-07-04T23:25:16.343Z,20.30
2017-07-04T23:27:44.411Z,20.30
2017-07-04T23:30:12.717Z,20.30
2017-07-04T23:32:40.827Z,20.30
2017-07-04T23:35:09.643Z,20.20
2017-07-04T23:37:37.770Z,20.20
2017-07-04T23:40:06.635Z,20.10
2017-07-04T23:42:34.767Z,20.10
2017-07-04T23:45:02.983Z,20.10
2017-07-04T23:47:31.038Z,20.10
2017-07-04T23:49:59.127Z,20.10
2017-07-04T23:52:27.200Z,20.10
2017-07-04T23:54:55.268Z,20.10
2017-07-04T23:57:24.010Z,20.10
2017-07-04T23:59:52.083Z,20.10
